sensor_id;sensor_type;location;lat;lon;timestamp;pressure;altitude;pressure_sealevel;temperature;humidity
73383;BME280;61600;48.126;11.542;2023-09-19T00:01:16;95347.47;;;19.74;61.83
73383;BME280;61600;48.126;11.542;2023-09-19T00:03:45;95349.09;;;19.75;61.55
73383;BME280;61600;48.126;11.542;2023-09-19T00:06:11;95348.38;;;19.78;61.25
73383;BME280;61600;48.126;11.542;2023-09-19T00:08:41;95343.22;;;20.05;60.48
73383;BME280;61600;48.126;11.542;2023-09-19T00:11:10;95332.59;;;19.91;59.76
73383;BME280;61600;48.126;11.542;2023-09-19T00:13:36;95333.63;;;19.86;60.56
73383;BME280;61600;48.126;11.542;2023-09-19T00:16:08;95343.34;;;19.96;60.34
73383;BME280;61600;48.126;11.542;2023-09-19T00:18:37;95342.66;;;19.99;60.62
73383;BME280;61600;48.126;11.542;2023-09-19T00:21:03;95340.66;;;20.12;59.99
73383;BME280;61600;48.126;11.542;2023-09-19T00:23:32;95342.09;;;20.21;59.94
73383;BME280;61600;48.126;11.542;2023-09-19T00:25:59;95341.28;;;20.21;60.09
73383;BME280;61600;48.126;11.542;2023-09-19T00:28:26;95350.19;;;20.14;60.04
73383;BME280;61600;48.126;11.542;2023-09-19T00:30:52;95347.75;;;20.13;60.17
73383;BME280;61600;48.126;11.542;2023-09-19T00:33:21;95358.66;;;20.21;60.01
73383;BME280;61600;48.126;11.542;2023-09-19T00:35:54;95354.28;;;20.20;60.96
73383;BME280;61600;48.126;11.542;2023-09-19T00:38:21;95350.19;;;20.14;61.43
73383;BME280;61600;48.126;11.542;2023-09-19T00:40:48;95353.75;;;20.15;61.67
73383;BME280;61600;48.126;11.542;2023-09-19T00:43:15;95351.50;;;20.05;62.39
73383;BME280;61600;48.126;11.542;2023-09-19T00:45:44;95354.06;;;19.98;62.51
73383;BME280;61600;48.126;11.542;2023-09-19T00:48:11;95355.53;;;19.95;62.78
73383;BME280;61600;48.126;11.542;2023-09-19T00:50:38;95362.44;;;20.01;62.87
73383;BME280;61600;48.126;11.542;2023-09-19T00:53:07;95364.56;;;19.52;64.19
73383;BME280;61600;48.126;11.542;2023-09-19T00:55:36;95360.56;;;19.77;64.13
73383;BME280;61600;48.126;11.542;2023-09-19T00:58:03;95363.53;;;19.84;63.65
73383;BME280;61600;48.126;11.542;2023-09-19T01:00:32;95373.53;;;19.89;63.43
73383;BME280;61600;48.126;11.542;2023-09-19T01:03:00;95376.56;;;19.72;63.87
73383;BME280;61600;48.126;11.542;2023-09-19T01:05:29;95379.28;;;19.44;64.64
73383;BME280;61600;48.126;11.542;2023-09-19T01:07:55;95383.59;;;19.69;64.75
73383;BME280;61600;48.126;11.542;2023-09-19T01:10:21;95382.31;;;19.79;63.45
73383;BME280;61600;48.126;11.542;2023-09-19T01:15:51;95388.06;;;19.74;62.42
73383;BME280;61600;48.126;11.542;2023-09-19T01:21:28;95389.66;;;19.87;62.21
73383;BME280;61600;48.126;11.542;2023-09-19T01:29:50;95400.78;;;19.90;61.81
73383;BME280;61600;48.126;11.542;2023-09-19T01:32:19;95399.06;;;19.86;62.22
73383;BME280;61600;48.126;11.542;2023-09-19T01:37:16;95412.53;;;19.87;61.85
73383;BME280;61600;48.126;11.542;2023-09-19T01:39:53;95406.41;;;19.94;61.37
73383;BME280;61600;48.126;11.542;2023-09-19T01:42:29;95411.84;;;19.90;61.02
73383;BME280;61600;48.126;11.542;2023-09-19T01:45:08;95414.50;;;19.87;61.16
73383;BME280;61600;48.126;11.542;2023-09-19T01:47:57;95424.16;;;19.81;61.47
73383;BME280;61600;48.126;11.542;2023-09-19T01:50:46;95419.00;;;19.79;61.03
73383;BME280;61600;48.126;11.542;2023-09-19T01:53:38;95425.31;;;19.80;60.96
73383;BME280;61600;48.126;11.542;2023-09-19T01:56:08;95426.69;;;19.74;60.80
73383;BME280;61600;48.126;11.542;2023-09-19T01:58:45;95421.25;;;19.89;60.39
73383;BME280;61600;48.126;11.542;2023-09-19T02:01:18;95418.50;;;19.89;60.52
73383;BME280;61600;48.126;11.542;2023-09-19T02:03:47;95409.41;;;19.89;60.20
73383;BME280;61600;48.126;11.542;2023-09-19T02:06:17;95420.34;;;19.85;60.07
73383;BME280;61600;48.126;11.542;2023-09-19T02:08:44;95423.59;;;19.87;60.06
73383;BME280;61600;48.126;11.542;2023-09-19T02:11:11;95427.72;;;19.81;60.35
73383;BME280;61600;48.126;11.542;2023-09-19T02:13:37;95418.38;;;19.98;59.84
73383;BME280;61600;48.126;11.542;2023-09-19T02:16:03;95425.97;;;19.89;60.22
73383;BME280;61600;48.126;11.542;2023-09-19T02:18:30;95416.69;;;19.81;60.10
73383;BME280;61600;48.126;11.542;2023-09-19T02:20:56;95418.63;;;19.81;60.11
73383;BME280;61600;48.126;11.542;2023-09-19T02:23:24;95406.00;;;19.80;60.31
73383;BME280;61600;48.126;11.542;2023-09-19T02:25:54;95418.28;;;19.82;60.25
73383;BME280;61600;48.126;11.542;2023-09-19T02:28:20;95418.63;;;19.81;60.16
73383;BME280;61600;48.126;11.542;2023-09-19T02:30:48;95417.75;;;19.77;60.14
73383;BME280;61600;48.126;11.542;2023-09-19T02:33:14;95415.66;;;19.74;60.69
73383;BME280;61600;48.126;11.542;2023-09-19T02:35:40;95421.06;;;19.70;60.67
73383;BME280;61600;48.126;11.542;2023-09-19T02:38:06;95428.31;;;19.75;60.61
73383;BME280;61600;48.126;11.542;2023-09-19T02:40:37;95424.84;;;19.78;60.38
73383;BME280;61600;48.126;11.542;2023-09-19T02:43:03;95421.06;;;19.70;60.80
73383;BME280;61600;48.126;11.542;2023-09-19T02:45:29;95431.19;;;19.78;60.53
73383;BME280;61600;48.126;11.542;2023-09-19T02:47:55;95435.19;;;19.81;60.56
73383;BME280;61600;48.126;11.542;2023-09-19T02:50:21;95426.97;;;19.69;60.87
73383;BME280;61600;48.126;11.542;2023-09-19T02:52:47;95431.22;;;19.66;61.14
73383;BME280;61600;48.126;11.542;2023-09-19T02:55:17;95432.84;;;19.55;61.22
73383;BME280;61600;48.126;11.542;2023-09-19T02:57:52;95425.28;;;19.52;61.38
73383;BME280;61600;48.126;11.542;2023-09-19T03:00:21;95435.03;;;19.50;61.56
73383;BME280;61600;48.126;11.542;2023-09-19T03:02:49;95436.28;;;19.40;61.53
73383;BME280;61600;48.126;11.542;2023-09-19T03:05:14;95431.47;;;19.49;61.45
73383;BME280;61600;48.126;11.542;2023-09-19T03:07:41;95423.09;;;19.46;61.49
73383;BME280;61600;48.126;11.542;2023-09-19T03:10:09;95422.28;;;19.45;61.41
73383;BME280;61600;48.126;11.542;2023-09-19T03:12:35;95426.41;;;19.51;61.38
73383;BME280;61600;48.126;11.542;2023-09-19T03:15:01;95424.78;;;19.38;61.55
73383;BME280;61600;48.126;11.542;2023-09-19T03:17:27;95428.63;;;19.46;61.46
73383;BME280;61600;48.126;11.542;2023-09-19T03:19:53;95430.56;;;19.45;61.16
73383;BME280;61600;48.126;11.542;2023-09-19T03:22:19;95429.06;;;19.48;61.46
73383;BME280;61600;48.126;11.542;2023-09-19T03:24:45;95425.25;;;19.40;61.38
73383;BME280;61600;48.126;11.542;2023-09-19T03:27:12;95427.00;;;19.44;61.20
73383;BME280;61600;48.126;11.542;2023-09-19T03:29:42;95428.81;;;19.40;61.03
73383;BME280;61600;48.126;11.542;2023-09-19T03:32:08;95427.88;;;19.36;61.00
73383;BME280;61600;48.126;11.542;2023-09-19T03:34:39;95436.88;;;19.46;61.07
73383;BME280;61600;48.126;11.542;2023-09-19T03:37:09;95434.69;;;19.51;60.52
73383;BME280;61600;48.126;11.542;2023-09-19T03:39:35;95438.47;;;19.34;60.96
73383;BME280;61600;48.126;11.542;2023-09-19T03:42:01;95440.09;;;19.48;60.73
73383;BME280;61600;48.126;11.542;2023-09-19T03:44:28;95433.88;;;19.51;60.75
73383;BME280;61600;48.126;11.542;2023-09-19T03:46:54;95440.09;;;19.48;60.91
73383;BME280;61600;48.126;11.542;2023-09-19T03:49:22;95437.31;;;19.35;61.16
73383;BME280;61600;48.126;11.542;2023-09-19T03:51:48;95436.19;;;19.49;60.95
73383;BME280;61600;48.126;11.542;2023-09-19T03:54:13;95442.31;;;19.42;61.05
73383;BME280;61600;48.126;11.542;2023-09-19T03:56:39;95438.16;;;19.48;61.07
73383;BME280;61600;48.126;11.542;2023-09-19T03:59:05;95445.03;;;19.30;61.09
73383;BME280;61600;48.126;11.542;2023-09-19T04:01:30;95445.16;;;19.46;60.90
73383;BME280;61600;48.126;11.542;2023-09-19T04:03:59;95448.13;;;19.40;61.32
73383;BME280;61600;48.126;11.542;2023-09-19T04:06:36;95451.81;;;19.44;60.85
73383;BME280;61600;48.126;11.542;2023-09-19T04:09:03;95446.16;;;19.53;60.63
73383;BME280;61600;48.126;11.542;2023-09-19T04:11:29;95444.00;;;19.34;61.23
73383;BME280;61600;48.126;11.542;2023-09-19T04:13:56;95460.53;;;19.34;61.08
73383;BME280;61600;48.126;11.542;2023-09-19T04:16:22;95456.31;;;19.49;60.68
73383;BME280;61600;48.126;11.542;2023-09-19T04:18:48;95454.47;;;19.41;61.00
73383;BME280;61600;48.126;11.542;2023-09-19T04:21:15;95463.56;;;19.41;60.89
73383;BME280;61600;48.126;11.542;2023-09-19T04:23:41;95462.06;;;19.44;61.05
73383;BME280;61600;48.126;11.542;2023-09-19T04:26:07;95470.53;;;19.39;61.26
73383;BME280;61600;48.126;11.542;2023-09-19T04:28:33;95459.84;;;19.37;61.35
73383;BME280;61600;48.126;11.542;2023-09-19T04:31:00;95475.16;;;19.35;61.00
73383;BME280;61600;48.126;11.542;2023-09-19T04:33:26;95472.94;;;19.28;61.14
73383;BME280;61600;48.126;11.542;2023-09-19T04:35:55;95478.94;;;19.30;61.01
73383;BME280;61600;48.126;11.542;2023-09-19T04:38:21;95480.91;;;19.42;60.89
73383;BME280;61600;48.126;11.542;2023-09-19T04:40:47;95492.03;;;19.33;61.19
73383;BME280;61600;48.126;11.542;2023-09-19T04:43:13;95482.59;;;19.22;61.13
73383;BME280;61600;48.126;11.542;2023-09-19T04:45:40;95479.25;;;19.29;61.17
73383;BME280;61600;48.126;11.542;2023-09-19T04:48:06;95492.34;;;19.32;60.94
73383;BME280;61600;48.126;11.542;2023-09-19T04:50:32;95491.69;;;19.23;61.23
73383;BME280;61600;48.126;11.542;2023-09-19T04:52:58;95499.13;;;19.22;60.77
73383;BME280;61600;48.126;11.542;2023-09-19T04:55:24;95491.31;;;19.12;61.21
73383;BME280;61600;48.126;11.542;2023-09-19T04:57:50;95499.91;;;19.11;61.17
73383;BME280;61600;48.126;11.542;2023-09-19T05:00:17;95503.06;;;19.33;60.74
73383;BME280;61600;48.126;11.542;2023-09-19T05:02:49;95508.38;;;19.38;60.31
73383;BME280;61600;48.126;11.542;2023-09-19T05:05:17;95504.69;;;19.34;60.04
73383;BME280;61600;48.126;11.542;2023-09-19T05:07:43;95515.03;;;19.37;60.11
73383;BME280;61600;48.126;11.542;2023-09-19T05:10:09;95517.53;;;19.30;60.48
73383;BME280;61600;48.126;11.542;2023-09-19T05:12:35;95521.81;;;19.28;60.51
73383;BME280;61600;48.126;11.542;2023-09-19T05:15:02;95518.72;;;19.41;59.91
73383;BME280;61600;48.126;11.542;2023-09-19T05:17:29;95523.97;;;19.34;60.53
73383;BME280;61600;48.126;11.542;2023-09-19T05:19:55;95532.97;;;19.43;59.98
73383;BME280;61600;48.126;11.542;2023-09-19T05:22:21;95536.84;;;19.30;60.37
73383;BME280;61600;48.126;11.542;2023-09-19T05:24:47;95538.00;;;19.29;60.19
73383;BME280;61600;48.126;11.542;2023-09-19T05:27:16;95542.81;;;19.32;60.33
73383;BME280;61600;48.126;11.542;2023-09-19T05:29:43;95553.13;;;19.11;60.59
73383;BME280;61600;48.126;11.542;2023-09-19T05:32:10;95555.31;;;19.06;61.12
73383;BME280;61600;48.126;11.542;2023-09-19T05:34:36;95545.63;;;19.44;59.91
73383;BME280;61600;48.126;11.542;2023-09-19T05:37:02;95550.19;;;19.40;60.03
73383;BME280;61600;48.126;11.542;2023-09-19T05:39:28;95554.31;;;19.34;59.90
73383;BME280;61600;48.126;11.542;2023-09-19T05:41:54;95555.84;;;19.44;60.06
73383;BME280;61600;48.126;11.542;2023-09-19T05:44:20;95556.59;;;19.32;60.29
73383;BME280;61600;48.126;11.542;2023-09-19T05:46:46;95557.13;;;19.47;59.96
73383;BME280;61600;48.126;11.542;2023-09-19T05:49:14;95560.91;;;19.42;60.00
73383;BME280;61600;48.126;11.542;2023-09-19T05:51:39;95569.34;;;19.13;61.26
73383;BME280;61600;48.126;11.542;2023-09-19T05:54:05;95568.44;;;19.21;60.61
73383;BME280;61600;48.126;11.542;2023-09-19T05:56:31;95562.56;;;19.22;60.60
73383;BME280;61600;48.126;11.542;2023-09-19T05:58:57;95573.53;;;19.43;60.38
73383;BME280;61600;48.126;11.542;2023-09-19T06:01:23;95566.09;;;19.56;60.26
73383;BME280;61600;48.126;11.542;2023-09-19T06:03:48;95564.72;;;19.62;59.82
73383;BME280;61600;48.126;11.542;2023-09-19T06:06:14;95570.44;;;19.57;59.59
73383;BME280;61600;48.126;11.542;2023-09-19T06:08:41;95567.56;;;19.53;60.10
73383;BME280;61600;48.126;11.542;2023-09-19T06:11:11;95578.72;;;19.57;60.03
73383;BME280;61600;48.126;11.542;2023-09-19T06:13:37;95577.94;;;19.68;59.45
73383;BME280;61600;48.126;11.542;2023-09-19T06:16:05;95578.63;;;19.89;58.87
73383;BME280;61600;48.126;11.542;2023-09-19T06:18:31;95573.44;;;19.88;59.03
73383;BME280;61600;48.126;11.542;2023-09-19T06:20:59;95583.34;;;19.89;59.14
73383;BME280;61600;48.126;11.542;2023-09-19T06:23:25;95577.59;;;19.82;59.27
73383;BME280;61600;48.126;11.542;2023-09-19T06:25:54;95578.28;;;19.91;58.94
73383;BME280;61600;48.126;11.542;2023-09-19T06:28:20;95573.56;;;19.91;59.00
73383;BME280;61600;48.126;11.542;2023-09-19T06:30:50;95583.09;;;20.06;58.67
73383;BME280;61600;48.126;11.542;2023-09-19T06:33:17;95586.34;;;19.84;58.72
73383;BME280;61600;48.126;11.542;2023-09-19T06:35:45;95575.97;;;19.93;58.23
73383;BME280;61600;48.126;11.542;2023-09-19T06:38:12;95583.69;;;20.00;58.61
73383;BME280;61600;48.126;11.542;2023-09-19T06:40:41;95583.44;;;19.92;59.17
73383;BME280;61600;48.126;11.542;2023-09-19T06:43:11;95597.94;;;19.77;59.78
73383;BME280;61600;48.126;11.542;2023-09-19T06:45:37;95606.34;;;19.69;59.72
73383;BME280;61600;48.126;11.542;2023-09-19T06:48:03;95596.00;;;19.90;59.15
73383;BME280;61600;48.126;11.542;2023-09-19T06:50:30;95597.25;;;19.92;59.21
73383;BME280;61600;48.126;11.542;2023-09-19T06:52:58;95596.59;;;19.83;59.58
73383;BME280;61600;48.126;11.542;2023-09-19T06:55:26;95606.22;;;19.77;59.56
73383;BME280;61600;48.126;11.542;2023-09-19T06:57:54;95603.59;;;20.05;59.12
73383;BME280;61600;48.126;11.542;2023-09-19T07:00:20;95610.16;;;20.01;59.22
73383;BME280;61600;48.126;11.542;2023-09-19T07:03:01;95610.25;;;20.04;59.06
73383;BME280;61600;48.126;11.542;2023-09-19T07:05:33;95613.25;;;19.99;59.34
73383;BME280;61600;48.126;11.542;2023-09-19T07:08:07;95620.16;;;20.05;59.00
73383;BME280;61600;48.126;11.542;2023-09-19T07:10:35;95623.84;;;19.97;59.33
73383;BME280;61600;48.126;11.542;2023-09-19T07:13:04;95615.44;;;19.93;59.89
73383;BME280;61600;48.126;11.542;2023-09-19T07:15:32;95617.84;;;19.95;59.94
73383;BME280;61600;48.126;11.542;2023-09-19T07:18:03;95628.22;;;19.86;59.40
73383;BME280;61600;48.126;11.542;2023-09-19T07:20:29;95634.66;;;19.90;59.44
73383;BME280;61600;48.126;11.542;2023-09-19T07:22:58;95635.56;;;20.06;59.40
73383;BME280;61600;48.126;11.542;2023-09-19T07:25:27;95634.78;;;19.93;59.46
73383;BME280;61600;48.126;11.542;2023-09-19T07:27:57;95638.00;;;20.08;59.13
73383;BME280;61600;48.126;11.542;2023-09-19T07:30:26;95631.66;;;20.31;58.80
73383;BME280;61600;48.126;11.542;2023-09-19T07:32:53;95626.47;;;20.42;58.65
73383;BME280;61600;48.126;11.542;2023-09-19T07:35:20;95627.81;;;20.60;58.30
73383;BME280;61600;48.126;11.542;2023-09-19T07:37:48;95628.38;;;20.66;58.31
73383;BME280;61600;48.126;11.542;2023-09-19T07:40:21;95627.22;;;20.67;58.29
73383;BME280;61600;48.126;11.542;2023-09-19T07:42:49;95634.38;;;20.56;58.66
73383;BME280;61600;48.126;11.542;2023-09-19T07:45:16;95621.31;;;20.40;58.93
73383;BME280;61600;48.126;11.542;2023-09-19T07:47:49;95621.47;;;20.60;58.70
73383;BME280;61600;48.126;11.542;2023-09-19T07:50:17;95631.13;;;20.66;58.62
73383;BME280;61600;48.126;11.542;2023-09-19T07:52:45;95628.38;;;20.66;58.32
73383;BME280;61600;48.126;11.542;2023-09-19T07:55:10;95627.63;;;20.81;58.14
73383;BME280;61600;48.126;11.542;2023-09-19T07:57:37;95621.03;;;20.58;58.73
73383;BME280;61600;48.126;11.542;2023-09-19T08:00:03;95630.59;;;20.48;58.77
73383;BME280;61600;48.126;11.542;2023-09-19T08:02:36;95637.84;;;20.53;58.33
73383;BME280;61600;48.126;11.542;2023-09-19T08:05:04;95631.34;;;20.73;58.31
73383;BME280;61600;48.126;11.542;2023-09-19T08:07:36;95631.75;;;20.87;57.53
73383;BME280;61600;48.126;11.542;2023-09-19T08:10:04;95639.31;;;21.02;57.68
73383;BME280;61600;48.126;11.542;2023-09-19T08:12:30;95638.91;;;20.88;58.35
73383;BME280;61600;48.126;11.542;2023-09-19T08:14:56;95636.25;;;20.91;58.13
73383;BME280;61600;48.126;11.542;2023-09-19T08:17:22;95644.66;;;20.83;58.34
73383;BME280;61600;48.126;11.542;2023-09-19T08:19:50;95639.75;;;21.04;57.33
73383;BME280;61600;48.126;11.542;2023-09-19T08:22:19;95630.50;;;21.24;57.09
73383;BME280;61600;48.126;11.542;2023-09-19T08:24:45;95650.03;;;21.04;57.41
73383;BME280;61600;48.126;11.542;2023-09-19T08:27:14;95637.69;;;21.01;57.37
73383;BME280;61600;48.126;11.542;2023-09-19T08:29:40;95645.28;;;21.04;56.81
73383;BME280;61600;48.126;11.542;2023-09-19T08:32:07;95635.22;;;20.84;56.81
73383;BME280;61600;48.126;11.542;2023-09-19T08:34:33;95640.91;;;20.75;57.29
73383;BME280;61600;48.126;11.542;2023-09-19T08:36:59;95640.31;;;20.82;56.87
73383;BME280;61600;48.126;11.542;2023-09-19T08:39:25;95639.66;;;21.01;56.32
73383;BME280;61600;48.126;11.542;2023-09-19T08:41:58;95631.31;;;21.25;56.20
73383;BME280;61600;48.126;11.542;2023-09-19T08:44:28;95642.75;;;21.11;56.36
73383;BME280;61600;48.126;11.542;2023-09-19T08:47:02;95631.66;;;21.23;55.92
73383;BME280;61600;48.126;11.542;2023-09-19T08:52:31;95632.47;;;21.39;55.00
73383;BME280;61600;48.126;11.542;2023-09-19T08:55:01;95655.59;;;21.31;55.42
73383;BME280;61600;48.126;11.542;2023-09-19T08:57:33;95638.63;;;21.33;55.25
73383;BME280;61600;48.126;11.542;2023-09-19T09:00:02;95630.69;;;21.47;54.66
73383;BME280;61600;48.126;11.542;2023-09-19T09:02:31;95635.66;;;21.69;53.76
73383;BME280;61600;48.126;11.542;2023-09-19T09:05:00;95645.91;;;21.53;54.74
73383;BME280;61600;48.126;11.542;2023-09-19T09:07:28;95634.75;;;21.50;54.46
73383;BME280;61600;48.126;11.542;2023-09-19T09:09:55;95641.91;;;21.66;53.62
73383;BME280;61600;48.126;11.542;2023-09-19T09:12:21;95646.91;;;21.76;53.51
73383;BME280;61600;48.126;11.542;2023-09-19T09:14:47;95654.34;;;22.04;53.57
73383;BME280;61600;48.126;11.542;2023-09-19T09:17:17;95651.63;;;21.60;53.36
73383;BME280;61600;48.126;11.542;2023-09-19T09:20:04;95660.91;;;21.52;53.56
73383;BME280;61600;48.126;11.542;2023-09-19T09:22:35;95666.78;;;21.51;52.94
73383;BME280;61600;48.126;11.542;2023-09-19T09:25:02;95657.56;;;21.47;52.72
73383;BME280;61600;48.126;11.542;2023-09-19T09:27:30;95636.72;;;21.49;52.44
73383;BME280;61600;48.126;11.542;2023-09-19T09:30:00;95645.91;;;21.69;52.18
73383;BME280;61600;48.126;11.542;2023-09-19T09:32:28;95643.59;;;21.86;51.22
73383;BME280;61600;48.126;11.542;2023-09-19T09:34:56;95645.66;;;21.89;51.39
73383;BME280;61600;48.126;11.542;2023-09-19T09:37:23;95643.91;;;21.97;51.12
73383;BME280;61600;48.126;11.542;2023-09-19T09:40:01;95639.97;;;21.98;51.06
73383;BME280;61600;48.126;11.542;2023-09-19T09:42:42;95660.34;;;22.06;50.12
73383;BME280;61600;48.126;11.542;2023-09-19T09:45:17;95639.50;;;21.96;50.57
73383;BME280;61600;48.126;11.542;2023-09-19T09:47:48;95650.22;;;21.82;50.64
73383;BME280;61600;48.126;11.542;2023-09-19T09:50:30;95633.66;;;22.48;49.22
73383;BME280;61600;48.126;11.542;2023-09-19T09:53:24;95637.91;;;22.26;48.86
73383;BME280;61600;48.126;11.542;2023-09-19T09:55:57;95638.16;;;22.21;48.73
73383;BME280;61600;48.126;11.542;2023-09-19T09:58:24;95666.00;;;22.60;47.97
73383;BME280;61600;48.126;11.542;2023-09-19T10:00:56;95650.94;;;22.76;47.76
73383;BME280;61600;48.126;11.542;2023-09-19T10:03:36;95649.19;;;22.87;47.79
73383;BME280;61600;48.126;11.542;2023-09-19T10:06:07;95660.53;;;23.36;46.67
73383;BME280;61600;48.126;11.542;2023-09-19T10:08:58;95653.44;;;23.20;47.27
73383;BME280;61600;48.126;11.542;2023-09-19T10:11:47;95650.41;;;22.86;47.32
73383;BME280;61600;48.126;11.542;2023-09-19T10:14:27;95650.00;;;22.88;48.03
73383;BME280;61600;48.126;11.542;2023-09-19T10:16:58;95658.63;;;23.02;47.83
73383;BME280;61600;48.126;11.542;2023-09-19T10:19:58;95666.25;;;23.24;46.53
73383;BME280;61600;48.126;11.542;2023-09-19T10:22:28;95663.22;;;23.33;46.33
73383;BME280;61600;48.126;11.542;2023-09-19T10:24:57;95677.56;;;23.35;46.16
73383;BME280;61600;48.126;11.542;2023-09-19T10:27:29;95659.28;;;23.34;46.92
73383;BME280;61600;48.126;11.542;2023-09-19T10:29:57;95662.28;;;23.06;45.79
73383;BME280;61600;48.126;11.542;2023-09-19T10:32:26;95663.69;;;23.16;46.90
73383;BME280;61600;48.126;11.542;2023-09-19T10:34:54;95661.56;;;23.28;47.32
73383;BME280;61600;48.126;11.542;2023-09-19T10:37:22;95676.47;;;23.20;47.41
73383;BME280;61600;48.126;11.542;2023-09-19T10:39:52;95661.50;;;23.25;47.28
73383;BME280;61600;48.126;11.542;2023-09-19T10:42:20;95675.78;;;22.88;47.52
73383;BME280;61600;48.126;11.542;2023-09-19T10:44:52;95674.22;;;22.72;48.25
73383;BME280;61600;48.126;11.542;2023-09-19T10:47:20;95676.34;;;22.63;48.44
73383;BME280;61600;48.126;11.542;2023-09-19T10:49:49;95677.28;;;22.51;48.99
73383;BME280;61600;48.126;11.542;2023-09-19T10:52:20;95677.03;;;22.40;49.17
73383;BME280;61600;48.126;11.542;2023-09-19T10:54:49;95673.94;;;22.26;50.12
73383;BME280;61600;48.126;11.542;2023-09-19T10:57:24;95669.88;;;22.39;50.26
73383;BME280;61600;48.126;11.542;2023-09-19T11:00:06;95660.72;;;22.70;49.59
73383;BME280;61600;48.126;11.542;2023-09-19T11:05:38;95660.00;;;21.92;50.58
73383;BME280;61600;48.126;11.542;2023-09-19T11:08:10;95663.56;;;22.23;50.41
73383;BME280;61600;48.126;11.542;2023-09-19T11:10:49;95670.97;;;22.19;49.64
73383;BME280;61600;48.126;11.542;2023-09-19T11:13:27;95671.22;;;22.46;48.55
73383;BME280;61600;48.126;11.542;2023-09-19T11:18:52;95658.53;;;22.45;48.01
73383;BME280;61600;48.126;11.542;2023-09-19T11:26:40;95659.22;;;22.57;46.77
73383;BME280;61600;48.126;11.542;2023-09-19T11:29:26;95651.78;;;22.61;45.71
73383;BME280;61600;48.126;11.542;2023-09-19T11:31:54;95665.94;;;22.91;44.49
73383;BME280;61600;48.126;11.542;2023-09-19T11:34:47;95663.22;;;22.75;44.35
73383;BME280;61600;48.126;11.542;2023-09-19T11:40:07;95656.31;;;23.23;43.25
73383;BME280;61600;48.126;11.542;2023-09-19T11:42:45;95652.47;;;23.70;42.89
73383;BME280;61600;48.126;11.542;2023-09-19T11:48:15;95647.47;;;23.79;42.26
73383;BME280;61600;48.126;11.542;2023-09-19T11:50:47;95656.66;;;24.51;40.93
73383;BME280;61600;48.126;11.542;2023-09-19T11:53:14;95653.75;;;23.95;41.37
73383;BME280;61600;48.126;11.542;2023-09-19T11:55:44;95658.94;;;24.19;40.61
73383;BME280;61600;48.126;11.542;2023-09-19T11:58:11;95652.56;;;24.19;40.87
73383;BME280;61600;48.126;11.542;2023-09-19T12:00:39;95650.28;;;24.24;40.69
73383;BME280;61600;48.126;11.542;2023-09-19T12:03:10;95641.75;;;24.36;40.50
73383;BME280;61600;48.126;11.542;2023-09-19T12:05:40;95641.09;;;24.73;40.27
73383;BME280;61600;48.126;11.542;2023-09-19T12:08:07;95651.97;;;24.55;40.39
73383;BME280;61600;48.126;11.542;2023-09-19T12:10:50;95656.41;;;24.33;41.36
73383;BME280;61600;48.126;11.542;2023-09-19T12:13:20;95640.22;;;24.95;41.14
73383;BME280;61600;48.126;11.542;2023-09-19T12:15:46;95640.59;;;25.23;40.83
73383;BME280;61600;48.126;11.542;2023-09-19T12:18:30;95628.31;;;25.28;40.93
73383;BME280;61600;48.126;11.542;2023-09-19T12:20:56;95640.50;;;25.50;40.09
73383;BME280;61600;48.126;11.542;2023-09-19T12:23:24;95635.19;;;25.38;40.08
73383;BME280;61600;48.126;11.542;2023-09-19T12:25:52;95642.03;;;25.10;40.52
73383;BME280;61600;48.126;11.542;2023-09-19T12:28:20;95628.88;;;25.74;40.00
73383;BME280;61600;48.126;11.542;2023-09-19T12:30:49;95626.31;;;24.95;40.41
73383;BME280;61600;48.126;11.542;2023-09-19T12:33:19;95633.63;;;25.07;39.69
73383;BME280;61600;48.126;11.542;2023-09-19T12:35:52;95636.22;;;24.93;39.87
73383;BME280;61600;48.126;11.542;2023-09-19T12:38:24;95634.09;;;25.79;38.29
73383;BME280;61600;48.126;11.542;2023-09-19T12:40:51;95623.66;;;25.35;39.89
73383;BME280;61600;48.126;11.542;2023-09-19T12:43:18;95621.03;;;25.90;38.54
73383;BME280;61600;48.126;11.542;2023-09-19T12:45:44;95618.78;;;26.03;38.44
73383;BME280;61600;48.126;11.542;2023-09-19T12:48:23;95653.81;;;26.04;37.69
73383;BME280;61600;48.126;11.542;2023-09-19T12:51:05;95619.53;;;25.96;38.41
73383;BME280;61600;48.126;11.542;2023-09-19T12:53:35;95627.31;;;25.80;38.96
73383;BME280;61600;48.126;11.542;2023-09-19T12:56:07;95615.47;;;25.90;38.96
73383;BME280;61600;48.126;11.542;2023-09-19T12:58:47;95623.31;;;25.77;39.75
73383;BME280;61600;48.126;11.542;2023-09-19T13:01:14;95622.13;;;26.19;39.22
73383;BME280;61600;48.126;11.542;2023-09-19T13:03:41;95624.03;;;25.67;38.00
73383;BME280;61600;48.126;11.542;2023-09-19T13:06:10;95620.31;;;25.97;38.22
73383;BME280;61600;48.126;11.542;2023-09-19T13:08:38;95609.31;;;25.70;39.33
73383;BME280;61600;48.126;11.542;2023-09-19T13:13:50;95608.63;;;26.21;37.91
73383;BME280;61600;48.126;11.542;2023-09-19T13:16:21;95619.88;;;26.35;39.16
73383;BME280;61600;48.126;11.542;2023-09-19T13:18:54;95609.16;;;27.09;38.68
73383;BME280;61600;48.126;11.542;2023-09-19T13:21:31;95603.69;;;27.38;38.02
73383;BME280;61600;48.126;11.542;2023-09-19T13:24:22;95603.22;;;27.14;38.89
73383;BME280;61600;48.126;11.542;2023-09-19T13:26:52;95597.03;;;27.74;37.66
73383;BME280;61600;48.126;11.542;2023-09-19T13:29:18;95595.38;;;27.45;37.59
73383;BME280;61600;48.126;11.542;2023-09-19T13:31:52;95593.84;;;27.65;37.59
73383;BME280;61600;48.126;11.542;2023-09-19T13:34:21;95594.53;;;27.37;38.32
73383;BME280;61600;48.126;11.542;2023-09-19T13:36:46;95594.38;;;26.98;39.11
73383;BME280;61600;48.126;11.542;2023-09-19T13:39:16;95593.81;;;27.51;38.25